sensor_id;sensor_type;location;lat;lon;timestamp;pressure;altitude;pressure_sealevel;temperature;humidity
56632;BME280;42503;39.928;-75.152;2023-08-08T00:08:21;100729.66;;;27.23;54.02
56632;BME280;42503;39.928;-75.152;2023-08-08T00:18:23;100687.69;;;27.18;53.44
56632;BME280;42503;39.928;-75.152;2023-08-08T00:28:24;100700.06;;;27.43;53.50
56632;BME280;42503;39.928;-75.152;2023-08-08T00:38:26;100689.16;;;27.42;53.35
56632;BME280;42503;39.928;-75.152;2023-08-08T00:48:27;100700.22;;;27.64;53.11
56632;BME280;42503;39.928;-75.152;2023-08-08T00:58:29;100641.50;;;27.71;53.11
56632;BME280;42503;39.928;-75.152;2023-08-08T01:08:42;100618.88;;;27.59;52.82
56632;BME280;42503;39.928;-75.152;2023-08-08T01:18:47;100607.91;;;27.83;52.58
56632;BME280;42503;39.928;-75.152;2023-08-08T01:28:52;100628.25;;;27.80;52.63
56632;BME280;42503;39.928;-75.152;2023-08-08T01:38:59;100632.38;;;27.92;52.31
56632;BME280;42503;39.928;-75.152;2023-08-08T01:49:03;100664.78;;;27.98;52.16
56632;BME280;42503;39.928;-75.152;2023-08-08T01:59:05;100693.88;;;28.02;52.07
56632;BME280;42503;39.928;-75.152;2023-08-08T02:09:09;100682.78;;;28.05;52.05
56632;BME280;42503;39.928;-75.152;2023-08-08T02:19:11;100681.28;;;28.08;51.80
56632;BME280;42503;39.928;-75.152;2023-08-08T02:29:12;100636.28;;;28.08;51.54
56632;BME280;42503;39.928;-75.152;2023-08-08T02:39:14;100630.66;;;28.08;51.77
56632;BME280;42503;39.928;-75.152;2023-08-08T02:49:15;100649.66;;;28.11;51.39
56632;BME280;42503;39.928;-75.152;2023-08-08T02:59:19;100641.03;;;28.16;51.46
56632;BME280;42503;39.928;-75.152;2023-08-08T03:09:22;100626.31;;;28.19;51.42
56632;BME280;42503;39.928;-75.152;2023-08-08T03:19:23;100537.47;;;27.71;51.48
56632;BME280;42503;39.928;-75.152;2023-08-08T03:29:25;100581.75;;;28.21;51.57
56632;BME280;42503;39.928;-75.152;2023-08-08T03:39:26;100564.22;;;28.24;51.47
56632;BME280;42503;39.928;-75.152;2023-08-08T03:49:27;100557.41;;;28.25;51.20
56632;BME280;42503;39.928;-75.152;2023-08-08T03:59:29;100550.50;;;28.23;51.20
56632;BME280;42503;39.928;-75.152;2023-08-08T04:09:32;100535.47;;;28.19;51.36
56632;BME280;42503;39.928;-75.152;2023-08-08T04:19:34;100541.50;;;28.29;51.10
56632;BME280;42503;39.928;-75.152;2023-08-08T04:29:38;100511.72;;;28.28;51.04
56632;BME280;42503;39.928;-75.152;2023-08-08T04:39:40;100499.50;;;28.24;51.40
56632;BME280;42503;39.928;-75.152;2023-08-08T04:49:41;100485.91;;;28.26;51.32
56632;BME280;42503;39.928;-75.152;2023-08-08T04:59:42;100473.97;;;28.29;51.11
56632;BME280;42503;39.928;-75.152;2023-08-08T05:09:44;100443.50;;;28.31;51.03
56632;BME280;42503;39.928;-75.152;2023-08-08T05:19:45;100437.22;;;28.34;50.95
56632;BME280;42503;39.928;-75.152;2023-08-08T05:29:47;100458.88;;;28.34;50.94
56632;BME280;42503;39.928;-75.152;2023-08-08T05:39:48;100428.78;;;28.34;51.07
56632;BME280;42503;39.928;-75.152;2023-08-08T05:49:51;100423.16;;;28.34;50.93
56632;BME280;42503;39.928;-75.152;2023-08-08T05:59:55;100409.63;;;28.28;51.35
56632;BME280;42503;39.928;-75.152;2023-08-08T06:09:56;100372.41;;;28.22;50.86
56632;BME280;42503;39.928;-75.152;2023-08-08T06:19:58;100374.47;;;28.34;51.01
56632;BME280;42503;39.928;-75.152;2023-08-08T06:29:59;100352.81;;;28.34;51.12
56632;BME280;42503;39.928;-75.152;2023-08-08T06:40:04;100365.41;;;28.28;51.15
56632;BME280;42503;39.928;-75.152;2023-08-08T06:50:06;100361.75;;;28.36;50.93
56632;BME280;42503;39.928;-75.152;2023-08-08T07:00:08;100353.94;;;28.33;50.88
56632;BME280;42503;39.928;-75.152;2023-08-08T07:10:12;100358.44;;;28.34;51.11
56632;BME280;42503;39.928;-75.152;2023-08-08T07:20:14;100337.56;;;28.35;51.20
56632;BME280;42503;39.928;-75.152;2023-08-08T07:30:15;100344.84;;;28.36;51.25
56632;BME280;42503;39.928;-75.152;2023-08-08T07:40:18;100345.69;;;28.37;51.13
56632;BME280;42503;39.928;-75.152;2023-08-08T07:50:19;100331.31;;;28.30;51.07
56632;BME280;42503;39.928;-75.152;2023-08-08T08:00:21;100300.50;;;28.33;50.99
56632;BME280;42503;39.928;-75.152;2023-08-08T08:10:22;100303.78;;;28.35;51.22
56632;BME280;42503;39.928;-75.152;2023-08-08T08:20:24;100325.16;;;28.36;51.04
56632;BME280;42503;39.928;-75.152;2023-08-08T08:30:26;100320.00;;;28.39;51.19
56632;BME280;42503;39.928;-75.152;2023-08-08T08:40:30;100310.59;;;28.34;51.11
56632;BME280;42503;39.928;-75.152;2023-08-08T08:50:38;100303.84;;;28.27;51.19
56632;BME280;42503;39.928;-75.152;2023-08-08T09:00:40;100315.03;;;28.35;51.17
56632;BME280;42503;39.928;-75.152;2023-08-08T09:10:43;100324.66;;;28.34;51.22
56632;BME280;42503;39.928;-75.152;2023-08-08T09:20:50;100329.13;;;28.35;51.41
56632;BME280;42503;39.928;-75.152;2023-08-08T09:30:52;100323.97;;;28.38;51.14
56632;BME280;42503;39.928;-75.152;2023-08-08T09:40:56;100327.97;;;28.36;51.25
56632;BME280;42503;39.928;-75.152;2023-08-08T09:50:58;100338.91;;;28.29;51.44
56632;BME280;42503;39.928;-75.152;2023-08-08T10:01:03;100342.88;;;28.37;51.32
56632;BME280;42503;39.928;-75.152;2023-08-08T10:11:07;100334.59;;;28.32;51.28
56632;BME280;42503;39.928;-75.152;2023-08-08T10:21:12;100361.66;;;28.24;51.35
56632;BME280;42503;39.928;-75.152;2023-08-08T10:31:24;100374.81;;;28.32;51.36
56632;BME280;42503;39.928;-75.152;2023-08-08T10:41:28;100392.69;;;28.36;51.35
56632;BME280;42503;39.928;-75.152;2023-08-08T10:51:48;100370.50;;;28.14;51.55
56632;BME280;42503;39.928;-75.152;2023-08-08T11:01:51;100405.78;;;28.32;51.63
56632;BME280;42503;39.928;-75.152;2023-08-08T11:11:53;100413.72;;;28.30;51.35
56632;BME280;42503;39.928;-75.152;2023-08-08T11:21:54;100425.47;;;28.32;51.30
56632;BME280;42503;39.928;-75.152;2023-08-08T11:32:04;100427.03;;;28.21;51.43
56632;BME280;42503;39.928;-75.152;2023-08-08T11:42:08;100454.44;;;28.33;51.28
56632;BME280;42503;39.928;-75.152;2023-08-08T11:52:09;100443.50;;;28.31;51.33
56632;BME280;42503;39.928;-75.152;2023-08-08T12:02:13;100445.16;;;28.32;51.50
56632;BME280;42503;39.928;-75.152;2023-08-08T12:12:19;100444.19;;;28.28;51.44
56632;BME280;42503;39.928;-75.152;2023-08-08T12:22:23;100469.00;;;28.35;51.32
56632;BME280;42503;39.928;-75.152;2023-08-08T12:32:28;100465.34;;;28.34;51.58
56632;BME280;42503;39.928;-75.152;2023-08-08T12:42:29;100480.06;;;28.31;51.42
56632;BME280;42503;39.928;-75.152;2023-08-08T12:52:31;100453.53;;;28.20;51.31
56632;BME280;42503;39.928;-75.152;2023-08-08T13:02:33;100471.81;;;28.35;51.44
56632;BME280;42503;39.928;-75.152;2023-08-08T13:12:35;100463.03;;;28.36;51.29
56632;BME280;42503;39.928;-75.152;2023-08-08T13:22:36;100460.88;;;28.33;51.58
56632;BME280;42503;39.928;-75.152;2023-08-08T13:32:39;100435.25;;;28.26;51.32
56632;BME280;42503;39.928;-75.152;2023-08-08T13:42:41;100456.06;;;28.34;51.35
56632;BME280;42503;39.928;-75.152;2023-08-08T13:52:42;100412.72;;;28.14;51.39
56632;BME280;42503;39.928;-75.152;2023-08-08T14:02:43;100440.84;;;28.35;51.54
56632;BME280;42503;39.928;-75.152;2023-08-08T14:12:49;100443.81;;;28.39;51.04
56632;BME280;42503;39.928;-75.152;2023-08-08T14:22:52;100453.25;;;28.34;51.35
56632;BME280;42503;39.928;-75.152;2023-08-08T14:32:54;100451.28;;;28.34;51.27
56632;BME280;42503;39.928;-75.152;2023-08-08T14:42:55;100467.97;;;28.40;51.25
56632;BME280;42503;39.928;-75.152;2023-08-08T14:53:00;100465.34;;;28.34;51.28
56632;BME280;42503;39.928;-75.152;2023-08-08T15:03:01;100463.03;;;28.36;51.38
56632;BME280;42503;39.928;-75.152;2023-08-08T15:13:05;100455.75;;;28.35;51.25
56632;BME280;42503;39.928;-75.152;2023-08-08T15:23:06;100469.50;;;28.37;51.46
56632;BME280;42503;39.928;-75.152;2023-08-08T15:33:13;100343.03;;;27.40;51.38
56632;BME280;42503;39.928;-75.152;2023-08-08T15:43:15;100453.81;;;28.27;51.26
56632;BME280;42503;39.928;-75.152;2023-08-08T15:53:16;100461.66;;;28.43;51.18
56632;BME280;42503;39.928;-75.152;2023-08-08T16:03:18;100441.47;;;28.41;51.28
56632;BME280;42503;39.928;-75.152;2023-08-08T16:13:19;100440.66;;;28.40;51.23
56632;BME280;42503;39.928;-75.152;2023-08-08T16:23:21;100412.06;;;28.29;51.39
56632;BME280;42503;39.928;-75.152;2023-08-08T16:33:22;100438.31;;;28.42;51.17
56632;BME280;42503;39.928;-75.152;2023-08-08T16:43:26;100444.41;;;28.44;51.34
56632;BME280;42503;39.928;-75.152;2023-08-08T16:53:32;100445.59;;;28.43;51.54
56632;BME280;42503;39.928;-75.152;2023-08-08T17:03:33;100426.59;;;28.31;51.91
56632;BME280;42503;39.928;-75.152;2023-08-08T17:13:36;100436.94;;;28.48;52.46
56632;BME280;42503;39.928;-75.152;2023-08-08T17:23:40;100440.78;;;28.44;52.46
56632;BME280;42503;39.928;-75.152;2023-08-08T17:33:42;100434.69;;;28.42;52.63
56632;BME280;42503;39.928;-75.152;2023-08-08T17:43:43;100437.16;;;28.43;52.86
56632;BME280;42503;39.928;-75.152;2023-08-08T17:53:47;100415.19;;;28.36;52.67
56632;BME280;42503;39.928;-75.152;2023-08-08T18:03:49;100410.09;;;28.51;52.66
56632;BME280;42503;39.928;-75.152;2023-08-08T18:13:50;100433.22;;;28.15;50.27
56632;BME280;42503;39.928;-75.152;2023-08-08T18:23:53;100429.69;;;27.67;50.02
56632;BME280;42503;39.928;-75.152;2023-08-08T18:33:58;100438.09;;;27.38;49.52
56632;BME280;42503;39.928;-75.152;2023-08-08T18:44:00;100450.03;;;27.26;50.30
56632;BME280;42503;39.928;-75.152;2023-08-08T18:54:01;100446.59;;;27.20;50.63
56632;BME280;42503;39.928;-75.152;2023-08-08T19:04:05;100480.66;;;27.10;50.99
56632;BME280;42503;39.928;-75.152;2023-08-08T19:14:07;100465.31;;;26.99;51.20
56632;BME280;42503;39.928;-75.152;2023-08-08T19:24:09;100465.59;;;27.06;51.21
56632;BME280;42503;39.928;-75.152;2023-08-08T19:34:10;100465.78;;;27.01;51.40
56632;BME280;42503;39.928;-75.152;2023-08-08T19:44:11;100445.50;;;26.86;51.52
56632;BME280;42503;39.928;-75.152;2023-08-08T19:54:13;100471.94;;;26.85;50.46
56632;BME280;42503;39.928;-75.152;2023-08-08T20:04:20;100471.97;;;26.68;50.43
56632;BME280;42503;39.928;-75.152;2023-08-08T20:14:30;100447.22;;;26.44;49.57
56632;BME280;42503;39.928;-75.152;2023-08-08T20:24:32;100453.66;;;26.53;50.77
56632;BME280;42503;39.928;-75.152;2023-08-08T20:34:34;100452.31;;;26.51;50.58
56632;BME280;42503;39.928;-75.152;2023-08-08T20:44:35;100404.44;;;26.21;51.27
56632;BME280;42503;39.928;-75.152;2023-08-08T20:54:36;100405.28;;;26.48;53.16
56632;BME280;42503;39.928;-75.152;2023-08-08T21:04:38;100401.34;;;26.49;54.08
56632;BME280;42503;39.928;-75.152;2023-08-08T21:14:39;100380.16;;;26.43;54.29
56632;BME280;42503;39.928;-75.152;2023-08-08T21:24:41;100396.38;;;26.46;54.16
56632;BME280;42503;39.928;-75.152;2023-08-08T21:34:42;100384.47;;;26.40;53.95
56632;BME280;42503;39.928;-75.152;2023-08-08T21:44:44;100386.94;;;26.42;56.92
56632;BME280;42503;39.928;-75.152;2023-08-08T21:54:45;100379.81;;;26.70;57.53
56632;BME280;42503;39.928;-75.152;2023-08-08T22:04:46;100396.28;;;26.89;56.77
56632;BME280;42503;39.928;-75.152;2023-08-08T22:14:51;100416.56;;;27.03;56.09
56632;BME280;42503;39.928;-75.152;2023-08-08T22:24:52;100428.75;;;27.16;55.45
56632;BME280;42503;39.928;-75.152;2023-08-08T22:34:54;100418.19;;;27.22;55.10
56632;BME280;42503;39.928;-75.152;2023-08-08T22:44:56;100432.34;;;27.34;54.91
56632;BME280;42503;39.928;-75.152;2023-08-08T22:54:57;100437.44;;;27.41;54.71
56632;BME280;42503;39.928;-75.152;2023-08-08T23:04:58;100444.03;;;27.45;54.54
56632;BME280;42503;39.928;-75.152;2023-08-08T23:15:03;100442.69;;;27.51;54.19
56632;BME280;42503;39.928;-75.152;2023-08-08T23:25:05;100434.44;;;27.46;54.21
56632;BME280;42503;39.928;-75.152;2023-08-08T23:35:07;100462.47;;;27.63;53.85
56632;BME280;42503;39.928;-75.152;2023-08-08T23:45:08;100467.38;;;27.66;53.79
56632;BME280;42503;39.928;-75.152;2023-08-08T23:55:14;100482.94;;;27.72;53.58
